Time;durP1;ratioP1;P1;durP2;ratioP2;P2;SDS_P1;SDS_P2;PMS_P1;PMS_P2;Temp;Humidity;BMP_temperature;BMP_pressure;BME280_temperature;BME280_humidity;BME280_pressure;Samples;Min_cycle;Max_cycle;Signal;HPM_P1;HPM_P2
2023/08/28 00:02:15;;;;;;;0.00;0.00;;;16.20;99.90;;;;;;5051705;28;20177;-63
2023/08/28 00:04:40;;;;;;;0.00;0.00;;;16.20;99.90;;;;;;5050671;28;20177;-62
2023/08/28 00:07:06;;;;;;;0.00;0.00;;;16.20;99.90;;;;;;5051494;28;20268;-62
2023/08/28 00:09:32;;;;;;;0.00;0.00;;;16.10;99.90;;;;;;5051717;28;20637;-63
2023/08/28 00:11:57;;;;;;;0.00;0.00;;;16.10;99.90;;;;;;5051311;28;20185;-62
2023/08/28 00:14:24;;;;;;;0.00;0.00;;;16.10;99.90;;;;;;5051406;28;20217;-62
2023/08/28 00:16:49;;;;;;;0.00;0.00;;;16.10;99.90;;;;;;5051399;28;20165;-62
2023/08/28 00:19:15;;;;;;;0.00;0.00;;;16.00;99.90;;;;;;5051348;28;20221;-62
2023/08/28 00:21:41;;;;;;;0.00;0.00;;;16.00;99.90;;;;;;5051366;28;20177;-62
2023/08/28 00:24:06;;;;;;;0.00;0.00;;;15.90;99.90;;;;;;5051426;28;20177;-62
2023/08/28 00:26:32;;;;;;;0.00;0.00;;;15.90;99.90;;;;;;5051415;28;20260;-62
2023/08/28 00:28:58;;;;;;;0.00;0.00;;;15.80;99.90;;;;;;5051276;28;20223;-62
2023/08/28 00:31:23;;;;;;;0.00;0.00;;;15.80;99.90;;;;;;5051112;28;20704;-62
2023/08/28 00:33:49;;;;;;;0.00;0.00;;;15.80;99.90;;;;;;5051048;28;20188;-62
2023/08/28 00:36:15;;;;;;;0.00;0.00;;;15.80;99.90;;;;;;5051115;28;20191;-62
2023/08/28 00:38:40;;;;;;;0.00;0.00;;;15.80;99.90;;;;;;5050062;28;20177;-63
2023/08/28 00:41:06;;;;;;;0.00;0.00;;;15.70;99.90;;;;;;5051192;28;20178;-62
2023/08/28 00:43:32;;;;;;;0.00;0.00;;;15.70;99.90;;;;;;5051274;28;20173;-62
2023/08/28 00:45:57;;;;;;;0.00;0.00;;;15.70;99.90;;;;;;5051261;28;20185;-62
2023/08/28 00:48:24;;;;;;;0.00;0.00;;;15.70;99.90;;;;;;5050773;28;20252;-62
2023/08/28 00:50:51;;;;;;;0.00;0.00;;;15.70;99.90;;;;;;5050889;28;20169;-62
2023/08/28 00:53:17;;;;;;;0.00;0.00;;;15.70;99.90;;;;;;5051032;28;20266;-62
2023/08/28 00:55:43;;;;;;;0.00;0.00;;;15.80;99.90;;;;;;5050869;28;20647;-62
2023/08/28 00:58:09;;;;;;;0.00;0.00;;;15.70;99.90;;;;;;5050915;28;20178;-62
2023/08/28 01:00:35;;;;;;;0.00;0.00;;;15.70;99.90;;;;;;5050937;28;20170;-62
2023/08/28 01:03:01;;;;;;;0.00;0.00;;;15.70;99.90;;;;;;5050710;28;20185;-62
2023/08/28 01:05:37;;;;;;;0.00;0.00;;;15.70;99.90;;;;;;5050954;28;20178;-60
2023/08/28 01:08:14;;;;;;;0.00;0.00;;;15.70;99.90;;;;;;5050643;28;20279;-60
2023/08/28 01:10:45;;;;;;;0.00;0.00;;;15.70;99.90;;;;;;5050411;28;20307;-60
2023/08/28 01:13:30;;;;;;;0.00;0.00;;;15.60;99.90;;;;;;5041330;28;20213;-60
2023/08/28 01:15:56;;;;;;;0.00;0.00;;;15.60;99.90;;;;;;5050634;28;20188;-60
2023/08/28 01:18:22;;;;;;;0.00;0.00;;;15.60;99.90;;;;;;5050637;28;20652;-60
2023/08/28 01:20:49;;;;;;;0.00;0.00;;;15.50;99.90;;;;;;5050483;28;20188;-60
2023/08/28 01:23:23;;;;;;;0.00;0.00;;;15.50;99.90;;;;;;5050222;28;20227;-60
2023/08/28 01:25:48;;;;;;;0.00;0.00;;;15.40;99.90;;;;;;5050667;28;20564;-60
2023/08/28 01:28:14;;;;;;;0.00;0.00;;;15.40;99.90;;;;;;5050366;28;20181;-60
2023/08/28 01:30:40;;;;;;;0.00;0.00;;;15.40;99.90;;;;;;5050496;28;20700;-60
2023/08/28 01:33:05;;;;;;;0.00;0.00;;;15.40;99.90;;;;;;5050419;28;20184;-60
2023/08/28 01:35:32;;;;;;;0.00;0.00;;;15.40;99.90;;;;;;5050426;28;20259;-60
2023/08/28 01:38:19;;;;;;;0.00;0.00;;;15.40;99.90;;;;;;5050636;28;20268;-60
2023/08/28 01:41:11;;;;;;;0.00;0.00;;;15.40;99.90;;;;;;5050551;28;20181;-60
2023/08/28 01:43:38;;;;;;;0.00;0.00;;;15.40;99.90;;;;;;5048172;28;20197;-60
2023/08/28 01:46:05;;;;;;;0.00;0.00;;;15.40;99.90;;;;;;5050371;28;20239;-60
2023/08/28 01:48:37;;;;;;;0.00;0.00;;;15.40;99.90;;;;;;5050652;28;20339;-60
2023/08/28 01:51:03;;;;;;;0.00;0.00;;;15.40;99.90;;;;;;5050291;28;20288;-60
2023/08/28 01:53:28;;;;;;;0.00;0.00;;;15.40;99.90;;;;;;5050425;28;20532;-60
2023/08/28 01:56:09;;;;;;;0.00;0.00;;;15.40;99.90;;;;;;5030019;28;20210;-59
2023/08/28 01:58:44;;;;;;;0.00;0.00;;;15.40;99.90;;;;;;5050441;28;20173;-60
2023/08/28 02:01:10;;;;;;;0.00;0.00;;;15.40;99.90;;;;;;5050635;28;20636;-60
2023/08/28 02:03:41;;;;;;;0.00;0.00;;;15.40;99.90;;;;;;5054358;28;20188;-60
2023/08/28 02:06:08;;;;;;;0.00;0.00;;;15.40;99.90;;;;;;5054072;28;20205;-60
2023/08/28 02:08:33;;;;;;;0.00;0.00;;;15.40;99.90;;;;;;5052930;28;20665;-60
2023/08/28 02:10:59;;;;;;;0.00;0.00;;;15.40;99.90;;;;;;5053586;28;20192;-61
2023/08/28 02:13:25;;;;;;;0.00;0.00;;;15.50;99.90;;;;;;5051206;28;20269;-62
2023/08/28 02:15:51;;;;;;;0.00;0.00;;;15.50;99.90;;;;;;5053726;28;20247;-61
2023/08/28 02:18:16;;;;;;;0.00;0.00;;;15.50;99.90;;;;;;5053461;28;20637;-61
2023/08/28 02:20:43;;;;;;;0.00;0.00;;;15.50;99.90;;;;;;5053631;28;20637;-61
2023/08/28 02:23:09;;;;;;;0.00;0.00;;;15.50;99.90;;;;;;5053305;28;20262;-61
2023/08/28 02:25:35;;;;;;;0.00;0.00;;;15.50;99.90;;;;;;5053400;28;20177;-61
2023/08/28 02:28:00;;;;;;;0.00;0.00;;;15.50;99.90;;;;;;5052895;28;20173;-61
2023/08/28 02:30:26;;;;;;;0.00;0.00;;;15.50;99.90;;;;;;5053209;28;20236;-61
2023/08/28 02:32:51;;;;;;;0.00;0.00;;;15.50;99.90;;;;;;5053203;28;20189;-61
2023/08/28 02:35:17;;;;;;;0.00;0.00;;;15.50;99.90;;;;;;5053211;28;20169;-61
2023/08/28 02:37:42;;;;;;;0.00;0.00;;;15.40;99.90;;;;;;5052900;28;20181;-61
2023/08/28 02:40:11;;;;;;;0.00;0.00;;;15.40;99.90;;;;;;5053111;28;20174;-61
2023/08/28 02:42:36;;;;;;;0.00;0.00;;;15.40;99.90;;;;;;5053186;28;20326;-61
2023/08/28 02:45:04;;;;;;;0.00;0.00;;;15.40;99.90;;;;;;5052929;28;20272;-61
2023/08/28 02:47:29;;;;;;;0.00;0.00;;;15.40;99.90;;;;;;5053350;28;20180;-61
2023/08/28 02:49:55;;;;;;;0.00;0.00;;;15.40;99.90;;;;;;5053081;28;20213;-61
2023/08/28 02:52:21;;;;;;;0.00;0.00;;;15.40;99.90;;;;;;5053124;28;20184;-62
2023/08/28 02:54:46;;;;;;;0.00;0.00;;;15.40;99.90;;;;;;5053244;28;20173;-61
2023/08/28 02:57:12;;;;;;;0.00;0.00;;;15.40;99.90;;;;;;5052789;28;20188;-61
2023/08/28 02:59:37;;;;;;;0.00;0.00;;;15.30;99.90;;;;;;5053528;28;20534;-61
2023/08/28 03:02:03;;;;;;;0.00;0.00;;;15.30;99.90;;;;;;5052951;28;20179;-61
2023/08/28 03:04:28;;;;;;;0.00;0.00;;;15.30;99.90;;;;;;5053183;28;20269;-61
2023/08/28 03:06:54;;;;;;;0.00;0.00;;;15.20;99.90;;;;;;5052363;28;20177;-61
2023/08/28 03:09:19;;;;;;;0.00;0.00;;;15.20;99.90;;;;;;5052777;28;20241;-61
2023/08/28 03:11:45;;;;;;;0.00;0.00;;;15.20;99.90;;;;;;5052485;28;20185;-61
2023/08/28 03:14:11;;;;;;;0.00;0.00;;;15.20;99.90;;;;;;5052642;28;20201;-61
2023/08/28 03:16:37;;;;;;;0.00;0.00;;;15.20;99.90;;;;;;5052703;28;20587;-61
2023/08/28 03:19:02;;;;;;;0.00;0.00;;;15.20;99.90;;;;;;5052579;28;20626;-61
2023/08/28 03:21:28;;;;;;;0.00;0.00;;;15.20;99.90;;;;;;5049971;28;20209;-61
2023/08/28 03:23:53;;;;;;;0.00;0.00;;;15.20;99.90;;;;;;5051361;28;20214;-61
2023/08/28 03:26:19;;;;;;;0.00;0.00;;;15.10;99.90;;;;;;5052076;28;20512;-61
2023/08/28 03:28:44;;;;;;;0.00;0.00;;;15.10;99.90;;;;;;5051856;28;20213;-61
2023/08/28 03:31:10;;;;;;;0.00;0.00;;;15.00;99.90;;;;;;5051351;28;20229;-61
2023/08/28 03:33:36;;;;;;;0.00;0.00;;;15.00;99.90;;;;;;5047436;28;20181;-64
2023/08/28 03:36:03;;;;;;;0.00;0.00;;;15.00;99.90;;;;;;5050924;28;20185;-62
2023/08/28 03:38:28;;;;;;;0.00;0.00;;;15.00;99.90;;;;;;5050638;28;20188;-60
2023/08/28 03:40:54;;;;;;;0.00;0.00;;;15.00;99.90;;;;;;5051307;28;20182;-59
2023/08/28 03:43:19;;;;;;;0.00;0.00;;;15.00;99.90;;;;;;5050654;28;20166;-60
2023/08/28 03:45:45;;;;;;;0.00;0.00;;;15.00;99.90;;;;;;5051451;28;20637;-62
2023/08/28 03:48:11;;;;;;;0.17;0.17;;;15.00;99.90;;;;;;5051155;28;20193;-60
2023/08/28 03:50:37;;;;;;;0.00;0.00;;;15.00;99.90;;;;;;5051408;28;20186;-61
2023/08/28 03:53:02;;;;;;;0.00;0.00;;;15.00;99.90;;;;;;5051078;28;20270;-61
2023/08/28 03:55:29;;;;;;;0.00;0.00;;;15.00;99.90;;;;;;5051222;28;20192;-64
2023/08/28 03:57:55;;;;;;;0.00;0.00;;;15.00;99.90;;;;;;5051293;28;20236;-60
2023/08/28 04:00:21;;;;;;;0.10;0.10;;;14.90;99.90;;;;;;5051072;28;20283;-60
2023/08/28 04:02:48;;;;;;;0.00;0.00;;;14.90;99.90;;;;;;5050920;28;20299;-62
2023/08/28 04:05:16;;;;;;;0.00;0.00;;;14.90;99.90;;;;;;5051094;28;20691;-62
2023/08/28 04:07:41;;;;;;;0.00;0.00;;;14.90;99.90;;;;;;5050152;28;20189;-61
2023/08/28 04:10:07;;;;;;;0.00;0.00;;;14.90;99.90;;;;;;5051344;28;20278;-61
2023/08/28 04:15:55;;;;;;;0.00;0.00;;;14.90;99.90;;;;;;5051035;28;20185;-61
2023/08/28 04:18:21;;;;;;;0.00;0.00;;;14.90;99.90;;;;;;5050829;28;20197;-62
2023/08/28 04:20:46;;;;;;;0.10;0.10;;;14.80;99.90;;;;;;5050676;28;20247;-61
2023/08/28 04:23:13;;;;;;;0.00;0.00;;;14.80;99.90;;;;;;5051077;28;20169;-61
2023/08/28 04:25:38;;;;;;;0.00;0.00;;;14.80;99.90;;;;;;5050878;28;20180;-61
2023/08/28 04:28:04;;;;;;;0.00;0.00;;;14.80;99.90;;;;;;5051011;28;20169;-62
2023/08/28 04:30:29;;;;;;;0.00;0.00;;;14.80;99.90;;;;;;5015448;28;1029292;-61
2023/08/28 04:32:55;;;;;;;0.35;0.35;;;14.80;99.90;;;;;;5051888;28;20185;-61
2023/08/28 04:35:21;;;;;;;0.00;0.00;;;14.80;99.90;;;;;;5051755;28;20640;-63
2023/08/28 04:37:46;;;;;;;0.00;0.00;;;14.70;99.90;;;;;;5051665;28;20300;-61
2023/08/28 04:40:12;;;;;;;0.05;0.05;;;14.70;99.90;;;;;;5051474;28;20184;-61
2023/08/28 04:42:37;;;;;;;0.05;0.05;;;14.70;99.90;;;;;;5051573;28;20177;-60
2023/08/28 04:45:03;;;;;;;0.00;0.00;;;14.70;99.90;;;;;;5051550;28;20178;-61
2023/08/28 04:47:29;;;;;;;0.00;0.00;;;14.70;99.90;;;;;;5051545;28;20195;-61
2023/08/28 04:49:55;;;;;;;0.00;0.00;;;14.70;99.90;;;;;;5051368;28;20223;-61
2023/08/28 04:52:22;;;;;;;0.00;0.00;;;14.70;99.90;;;;;;5051441;28;20197;-61
2023/08/28 04:54:47;;;;;;;0.00;0.00;;;14.70;99.90;;;;;;5051351;28;20640;-61
2023/08/28 04:57:13;;;;;;;0.00;0.00;;;14.70;99.90;;;;;;5051331;28;20182;-61
2023/08/28 04:59:39;;;;;;;0.00;0.00;;;14.80;99.90;;;;;;5051249;28;20637;-62
2023/08/28 05:02:05;;;;;;;0.00;0.00;;;14.80;99.90;;;;;;5051122;28;20664;-61
2023/08/28 05:04:31;;;;;;;0.00;0.00;;;14.80;99.90;;;;;;5051302;28;20268;-61
2023/08/28 05:06:56;;;;;;;0.00;0.00;;;14.80;99.90;;;;;;5051253;28;20204;-61
2023/08/28 05:09:22;;;;;;;0.00;0.00;;;14.80;99.90;;;;;;5051257;28;20252;-61
2023/08/28 05:11:47;;;;;;;0.08;0.08;;;14.80;99.90;;;;;;5051159;28;20196;-61
2023/08/28 05:14:13;;;;;;;0.10;0.10;;;14.80;99.90;;;;;;5051226;28;20251;-61
2023/08/28 05:16:39;;;;;;;0.00;0.00;;;14.90;99.90;;;;;;5051305;28;20546;-61
2023/08/28 05:19:04;;;;;;;0.00;0.00;;;14.90;99.90;;;;;;5051144;28;20691;-61
2023/08/28 05:21:30;;;;;;;0.00;0.00;;;14.90;99.90;;;;;;5051355;28;20629;-61
2023/08/28 05:23:55;;;;;;;0.00;0.00;;;14.90;99.90;;;;;;5051117;28;20319;-61
2023/08/28 05:26:21;;;;;;;0.00;0.00;;;14.90;99.90;;;;;;5051035;28;20173;-61
2023/08/28 05:28:46;;;;;;;0.00;0.00;;;14.90;99.90;;;;;;5050996;28;20201;-61
2023/08/28 05:31:12;;;;;;;0.00;0.00;;;14.90;99.90;;;;;;5050916;28;20236;-62
2023/08/28 05:33:37;;;;;;;0.00;0.00;;;14.90;99.90;;;;;;5051199;28;20260;-61
2023/08/28 05:36:03;;;;;;;0.00;0.00;;;14.90;99.90;;;;;;5051044;28;20177;-61
2023/08/28 05:38:29;;;;;;;0.00;0.00;;;14.80;99.90;;;;;;5055190;28;20553;-61
2023/08/28 05:40:55;;;;;;;0.00;0.00;;;14.90;99.90;;;;;;5054960;28;20189;-61
2023/08/28 05:43:20;;;;;;;0.00;0.00;;;14.90;99.90;;;;;;5054929;28;20251;-61
2023/08/28 05:45:47;;;;;;;0.00;0.00;;;14.90;99.90;;;;;;5054924;28;20216;-61
2023/08/28 05:48:13;;;;;;;0.00;0.00;;;14.80;99.90;;;;;;5054798;28;20205;-61
2023/08/28 05:50:39;;;;;;;0.00;0.00;;;14.80;99.90;;;;;;5055061;28;20212;-61
2023/08/28 05:53:08;;;;;;;0.00;0.00;;;14.90;99.90;;;;;;5054850;28;20189;-61
2023/08/28 05:55:33;;;;;;;0.00;0.00;;;14.90;99.90;;;;;;5054920;28;20174;-61
2023/08/28 05:57:59;;;;;;;0.00;0.00;;;14.90;99.90;;;;;;5054862;28;20173;-61
2023/08/28 06:00:25;;;;;;;0.00;0.00;;;14.90;99.90;;;;;;5054489;28;20180;-61
2023/08/28 06:02:51;;;;;;;0.00;0.00;;;14.90;99.90;;;;;;5054640;28;20597;-61
2023/08/28 06:05:16;;;;;;;0.08;0.08;;;14.90;99.90;;;;;;5054510;28;20182;-61
2023/08/28 06:07:43;;;;;;;0.00;0.00;;;14.90;99.90;;;;;;5054719;28;20268;-61
2023/08/28 06:10:11;;;;;;;0.00;0.00;;;14.90;99.90;;;;;;5053339;28;20205;-61
2023/08/28 06:12:37;;;;;;;0.00;0.00;;;14.90;99.90;;;;;;5054587;28;20170;-61
2023/08/28 06:15:02;;;;;;;0.00;0.00;;;15.00;99.90;;;;;;5053288;28;20663;-61
2023/08/28 06:17:28;;;;;;;0.00;0.00;;;15.00;99.90;;;;;;5054205;28;20184;-61
2023/08/28 06:19:53;;;;;;;0.00;0.00;;;15.00;99.90;;;;;;5054460;28;20645;-61
2023/08/28 06:22:19;;;;;;;0.00;0.00;;;15.00;99.90;;;;;;5054253;28;20181;-61
2023/08/28 06:24:50;;;;;;;0.00;0.00;;;15.10;99.90;;;;;;5054209;28;20169;-61
2023/08/28 06:27:15;;;;;;;0.00;0.00;;;15.10;99.90;;;;;;5054171;28;20676;-61
2023/08/28 06:29:41;;;;;;;0.00;0.00;;;15.10;99.90;;;;;;5053959;28;20241;-61
2023/08/28 06:32:06;;;;;;;0.00;0.00;;;15.10;99.90;;;;;;5052862;28;20177;-61
2023/08/28 06:34:32;;;;;;;0.00;0.00;;;15.10;99.90;;;;;;5052778;28;20223;-61
2023/08/28 06:36:57;;;;;;;0.20;0.20;;;15.10;99.90;;;;;;5054110;28;20743;-61
2023/08/28 06:39:23;;;;;;;0.00;0.00;;;15.10;99.90;;;;;;5054039;28;20181;-61
2023/08/28 06:41:48;;;;;;;0.00;0.00;;;15.10;99.90;;;;;;5054073;28;20208;-61
2023/08/28 06:44:14;;;;;;;0.00;0.00;;;15.20;99.90;;;;;;5053913;28;20165;-61
2023/08/28 06:46:39;;;;;;;0.00;0.00;;;15.10;99.90;;;;;;5053875;28;20628;-61
2023/08/28 06:49:05;;;;;;;0.00;0.00;;;15.20;99.90;;;;;;5053293;28;20205;-61
2023/08/28 06:51:31;;;;;;;0.00;0.00;;;15.20;99.90;;;;;;5053770;28;20222;-61
2023/08/28 06:53:57;;;;;;;0.00;0.00;;;15.20;99.90;;;;;;5053838;28;20312;-61
2023/08/28 06:56:22;;;;;;;0.00;0.00;;;15.20;99.90;;;;;;5053658;28;20170;-61
2023/08/28 06:58:48;;;;;;;0.00;0.00;;;15.30;99.90;;;;;;5053618;28;20698;-61
2023/08/28 07:01:14;;;;;;;0.00;0.00;;;15.30;99.90;;;;;;5053504;28;20568;-61
2023/08/28 07:03:40;;;;;;;0.00;0.00;;;15.40;99.90;;;;;;5053676;28;20181;-61
2023/08/28 07:06:05;;;;;;;0.00;0.00;;;15.40;99.90;;;;;;5053469;28;20231;-61
2023/08/28 07:08:31;;;;;;;0.00;0.00;;;15.40;99.90;;;;;;5052273;28;20213;-61
2023/08/28 07:10:56;;;;;;;0.00;0.00;;;15.40;99.90;;;;;;5053558;28;20542;-61
2023/08/28 07:13:22;;;;;;;0.00;0.00;;;15.40;99.90;;;;;;5053376;28;20251;-61
2023/08/28 07:15:48;;;;;;;0.00;0.00;;;15.40;99.90;;;;;;5053390;28;20321;-61
2023/08/28 07:18:13;;;;;;;0.00;0.00;;;15.50;99.90;;;;;;5053318;28;20158;-61
2023/08/28 07:20:39;;;;;;;0.00;0.00;;;15.60;99.90;;;;;;5053352;28;20169;-61
2023/08/28 07:23:04;;;;;;;0.00;0.00;;;15.60;99.90;;;;;;5053233;28;20174;-62
2023/08/28 07:25:31;;;;;;;0.00;0.00;;;15.70;99.90;;;;;;5053192;28;20166;-63
2023/08/28 07:27:57;;;;;;;0.00;0.00;;;15.80;99.90;;;;;;5053232;28;20265;-60
2023/08/28 07:30:22;;;;;;;0.00;0.00;;;15.90;99.90;;;;;;5052791;28;20639;-60
2023/08/28 07:32:48;;;;;;;0.00;0.00;;;16.00;99.90;;;;;;5052986;28;20637;-60
2023/08/28 07:35:13;;;;;;;0.00;0.00;;;16.00;99.90;;;;;;5052957;28;20177;-60
2023/08/28 07:37:40;;;;;;;0.00;0.00;;;16.00;99.90;;;;;;5051640;28;20695;-60
2023/08/28 07:40:06;;;;;;;0.00;0.00;;;16.10;99.90;;;;;;5052841;28;20220;-60
2023/08/28 07:42:36;;;;;;;0.00;0.00;;;16.10;99.90;;;;;;5052817;28;20185;-60
2023/08/28 07:45:02;;;;;;;0.00;0.00;;;16.10;99.90;;;;;;5052879;28;20169;-60
2023/08/28 07:47:28;;;;;;;0.00;0.00;;;16.10;99.90;;;;;;5052800;28;20178;-60
2023/08/28 07:49:54;;;;;;;0.00;0.00;;;16.20;99.90;;;;;;5052755;28;20217;-60
2023/08/28 07:52:20;;;;;;;0.00;0.00;;;16.20;99.90;;;;;;5052554;28;20209;-60
2023/08/28 07:54:46;;;;;;;0.00;0.00;;;16.10;99.90;;;;;;5052568;28;20208;-59
2023/08/28 07:57:11;;;;;;;0.00;0.00;;;16.10;99.90;;;;;;5052637;28;20178;-59
2023/08/28 07:59:37;;;;;;;0.00;0.00;;;16.10;99.90;;;;;;5051835;28;20182;-59
2023/08/28 08:02:04;;;;;;;0.00;0.00;;;16.10;99.90;;;;;;5052559;28;20173;-59
2023/08/28 08:04:31;;;;;;;0.00;0.00;;;16.10;99.90;;;;;;5052424;28;20181;-59
2023/08/28 08:06:57;;;;;;;0.00;0.00;;;16.10;99.90;;;;;;5052354;28;20177;-59
2023/08/28 08:09:24;;;;;;;0.00;0.00;;;16.10;99.90;;;;;;5052279;28;20197;-59
2023/08/28 08:11:49;;;;;;;0.00;0.00;;;16.20;99.90;;;;;;5052321;28;20182;-59
2023/08/28 08:14:15;;;;;;;0.00;0.00;;;16.20;99.90;;;;;;5052301;28;20219;-59
2023/08/28 08:16:40;;;;;;;0.00;0.00;;;16.20;99.90;;;;;;5052263;28;20173;-59
2023/08/28 08:19:06;;;;;;;0.00;0.00;;;16.30;99.90;;;;;;5052146;28;20250;-59
2023/08/28 08:21:31;;;;;;;0.00;0.00;;;16.30;99.90;;;;;;5052070;28;20178;-59
2023/08/28 08:23:57;;;;;;;0.00;0.00;;;16.30;99.90;;;;;;5052163;28;20215;-59
2023/08/28 08:26:22;;;;;;;0.00;0.00;;;16.30;99.90;;;;;;5052049;28;20173;-59
2023/08/28 08:28:48;;;;;;;0.00;0.00;;;16.30;99.90;;;;;;5051926;28;20201;-60
2023/08/28 08:31:14;;;;;;;0.00;0.00;;;16.30;99.90;;;;;;5051823;28;20704;-60
2023/08/28 08:33:39;;;;;;;0.00;0.00;;;16.30;99.90;;;;;;5052024;28;20640;-60
2023/08/28 08:36:05;;;;;;;0.00;0.00;;;16.30;99.90;;;;;;5051836;28;20178;-60
2023/08/28 08:38:31;;;;;;;0.00;0.00;;;16.40;99.90;;;;;;5051785;28;20629;-61
2023/08/28 08:40:58;;;;;;;0.00;0.00;;;16.40;99.90;;;;;;5051709;28;20226;-61
2023/08/28 08:43:25;;;;;;;0.00;0.00;;;16.50;99.90;;;;;;5051605;28;20204;-60
2023/08/28 08:45:58;;;;;;;0.00;0.00;;;16.50;99.90;;;;;;5051745;28;20181;-60
2023/08/28 08:48:25;;;;;;;0.00;0.00;;;16.60;99.90;;;;;;5051509;28;20184;-60
2023/08/28 08:51:00;;;;;;;0.00;0.00;;;16.60;99.90;;;;;;5051648;28;20671;-60
2023/08/28 08:53:35;;;;;;;0.00;0.00;;;16.80;99.90;;;;;;5051529;28;20231;-60
2023/08/28 08:56:04;;;;;;;0.00;0.00;;;16.90;99.90;;;;;;5051675;28;20181;-61
2023/08/28 08:58:30;;;;;;;0.00;0.00;;;16.90;99.90;;;;;;5051543;28;20192;-61
2023/08/28 09:00:56;;;;;;;0.00;0.00;;;17.00;99.90;;;;;;5051563;28;20185;-61
2023/08/28 09:03:23;;;;;;;0.00;0.00;;;17.00;99.90;;;;;;5051427;28;20176;-61
2023/08/28 09:05:49;;;;;;;0.00;0.00;;;17.10;99.90;;;;;;5051280;28;20228;-61
2023/08/28 09:08:17;;;;;;;0.00;0.00;;;17.10;99.90;;;;;;5051289;28;20192;-61
2023/08/28 09:10:46;;;;;;;0.00;0.00;;;17.10;99.90;;;;;;5051379;28;20589;-61
2023/08/28 09:13:12;;;;;;;0.00;0.00;;;17.10;99.90;;;;;;5051213;28;20177;-60
2023/08/28 09:15:37;;;;;;;0.00;0.00;;;17.10;99.90;;;;;;5051415;28;20181;-61
2023/08/28 09:18:04;;;;;;;0.00;0.00;;;17.20;99.90;;;;;;5051256;28;20360;-61
2023/08/28 09:20:30;;;;;;;0.00;0.00;;;17.20;99.90;;;;;;5051168;28;20181;-61
2023/08/28 09:22:56;;;;;;;0.00;0.00;;;17.20;99.90;;;;;;5051278;28;20205;-61
2023/08/28 09:25:22;;;;;;;0.00;0.00;;;17.30;99.90;;;;;;5051182;28;20235;-61
2023/08/28 09:27:49;;;;;;;0.00;0.00;;;17.40;99.90;;;;;;5051159;28;20174;-61
2023/08/28 09:30:36;;;;;;;0.00;0.00;;;17.60;99.90;;;;;;5050901;28;20237;-61
2023/08/28 09:33:06;;;;;;;0.00;0.00;;;17.80;99.90;;;;;;5051138;28;20200;-61
2023/08/28 09:35:37;;;;;;;0.00;0.00;;;18.10;99.90;;;;;;5051245;28;20181;-61
2023/08/28 09:38:03;;;;;;;0.00;0.00;;;18.30;99.90;;;;;;5051000;28;20718;-61
2023/08/28 09:40:37;;;;;;;0.00;0.00;;;18.50;99.90;;;;;;5051237;28;20193;-61
2023/08/28 09:43:16;;;;;;;0.00;0.00;;;18.60;99.90;;;;;;5051085;28;20181;-61
2023/08/28 09:45:43;;;;;;;0.00;0.00;;;18.60;99.90;;;;;;5051096;28;20177;-61
2023/08/28 09:48:10;;;;;;;0.00;0.00;;;18.50;99.90;;;;;;5051004;28;20174;-61
2023/08/28 09:50:39;;;;;;;0.00;0.00;;;18.50;99.90;;;;;;5050996;28;20677;-61
2023/08/28 09:53:15;;;;;;;0.00;0.00;;;18.50;99.90;;;;;;5050813;28;20186;-61
2023/08/28 09:55:50;;;;;;;0.00;0.00;;;18.50;99.90;;;;;;5051156;28;20655;-60
2023/08/28 09:58:16;;;;;;;0.00;0.00;;;18.50;99.90;;;;;;5051002;28;20533;-60
2023/08/28 10:00:42;;;;;;;0.00;0.00;;;18.70;99.90;;;;;;5051017;28;20182;-61
2023/08/28 10:03:09;;;;;;;0.00;0.00;;;18.80;99.90;;;;;;5050758;28;20182;-61
2023/08/28 10:05:45;;;;;;;0.00;0.00;;;18.90;99.90;;;;;;5050909;28;20226;-61
2023/08/28 10:08:15;;;;;;;0.03;0.03;;;19.10;99.90;;;;;;5050792;28;20185;-61
2023/08/28 10:10:47;;;;;;;0.00;0.00;;;19.20;99.90;;;;;;5050796;28;20312;-61
2023/08/28 10:13:19;;;;;;;0.00;0.00;;;19.30;99.90;;;;;;5050755;28;20176;-61
2023/08/28 10:15:53;;;;;;;0.00;0.00;;;19.40;99.90;;;;;;5050634;28;20173;-61
2023/08/28 10:18:27;;;;;;;0.00;0.00;;;19.40;99.90;;;;;;5050610;28;20174;-61
2023/08/28 10:20:54;;;;;;;0.00;0.00;;;19.40;99.90;;;;;;5050763;28;20230;-61
2023/08/28 10:23:21;;;;;;;0.00;0.00;;;19.30;99.90;;;;;;5052626;28;20174;-61
2023/08/28 10:25:49;;;;;;;0.00;0.00;;;19.30;99.70;;;;;;5054299;28;20181;-63
2023/08/28 10:28:16;;;;;;;0.00;0.00;;;19.30;99.50;;;;;;5054164;28;20746;-61
2023/08/28 10:30:43;;;;;;;0.00;0.00;;;19.40;99.90;;;;;;5053873;28;20735;-61
2023/08/28 10:33:12;;;;;;;0.00;0.00;;;19.50;99.80;;;;;;5054131;28;20531;-61
2023/08/28 10:35:40;;;;;;;0.00;0.00;;;19.60;99.50;;;;;;5054200;28;20205;-61
2023/08/28 10:38:06;;;;;;;0.00;0.00;;;19.70;99.60;;;;;;5053979;28;20633;-61
2023/08/28 10:40:31;;;;;;;0.00;0.00;;;19.70;99.20;;;;;;5053874;28;20178;-61
2023/08/28 10:42:57;;;;;;;0.00;0.00;;;19.70;99.20;;;;;;5053972;28;20174;-61
2023/08/28 10:45:23;;;;;;;0.00;0.00;;;19.70;99.10;;;;;;5053881;28;20216;-61
2023/08/28 10:47:49;;;;;;;0.00;0.00;;;19.70;98.90;;;;;;5053935;28;20221;-61
2023/08/28 10:50:15;;;;;;;0.00;0.00;;;19.70;98.90;;;;;;5053664;28;20343;-61
2023/08/28 10:52:40;;;;;;;0.00;0.00;;;19.70;98.30;;;;;;5053807;28;20201;-61
2023/08/28 10:55:07;;;;;;;0.00;0.00;;;19.70;98.40;;;;;;5053541;28;20181;-61
2023/08/28 10:57:39;;;;;;;0.00;0.00;;;19.70;98.50;;;;;;5053821;28;20173;-61
2023/08/28 11:00:20;;;;;;;0.00;0.00;;;19.80;98.50;;;;;;5053565;28;20663;-61
2023/08/28 11:03:06;;;;;;;0.00;0.00;;;19.90;98.40;;;;;;5053631;28;20182;-61
2023/08/28 11:05:32;;;;;;;0.00;0.00;;;19.90;98.00;;;;;;5053643;28;20563;-61
2023/08/28 11:08:03;;;;;;;0.00;0.00;;;19.90;98.30;;;;;;5053523;28;20243;-61
2023/08/28 11:10:29;;;;;;;0.00;0.00;;;20.00;98.40;;;;;;5053281;28;20680;-61
2023/08/28 11:13:00;;;;;;;0.00;0.00;;;20.00;97.90;;;;;;5053523;28;20239;-61
2023/08/28 11:15:31;;;;;;;0.00;0.00;;;20.10;97.70;;;;;;5053242;28;20188;-61
2023/08/28 11:18:19;;;;;;;0.00;0.00;;;20.10;97.30;;;;;;5053344;28;20196;-61
2023/08/28 11:20:52;;;;;;;0.00;0.00;;;20.10;96.90;;;;;;5053264;28;20187;-61
2023/08/28 11:23:36;;;;;;;0.00;0.00;;;20.10;97.10;;;;;;5053248;28;20177;-61
2023/08/28 11:26:23;;;;;;;0.00;0.00;;;20.20;97.40;;;;;;5053223;28;20181;-61
2023/08/28 11:28:50;;;;;;;0.00;0.00;;;20.40;97.10;;;;;;5048877;28;20252;-61
2023/08/28 11:31:17;;;;;;;0.00;0.00;;;20.50;95.90;;;;;;5052931;28;20332;-61
2023/08/28 11:33:51;;;;;;;0.00;0.00;;;20.60;96.30;;;;;;5052265;28;20211;-61
2023/08/28 11:36:21;;;;;;;0.00;0.00;;;20.70;95.40;;;;;;5052675;28;20552;-61
2023/08/28 11:38:48;;;;;;;0.00;0.00;;;20.80;95.00;;;;;;5052628;28;20177;-61
2023/08/28 11:41:14;;;;;;;0.00;0.00;;;20.90;95.00;;;;;;5052783;28;20269;-61
2023/08/28 11:43:44;;;;;;;0.00;0.00;;;21.10;95.00;;;;;;5052896;28;20261;-61
2023/08/28 11:46:11;;;;;;;0.00;0.00;;;21.20;94.50;;;;;;5051625;28;20181;-61
2023/08/28 11:48:44;;;;;;;0.00;0.00;;;21.30;94.40;;;;;;5052828;28;20508;-61
2023/08/28 11:51:10;;;;;;;0.00;0.00;;;21.40;93.90;;;;;;5052780;28;20186;-61
2023/08/28 11:53:42;;;;;;;0.00;0.00;;;21.40;93.60;;;;;;5052805;28;20177;-61
2023/08/28 11:56:12;;;;;;;0.00;0.00;;;21.40;93.20;;;;;;5052480;28;20272;-61
2023/08/28 11:58:39;;;;;;;0.00;0.00;;;21.30;93.10;;;;;;5052715;28;20632;-61
2023/08/28 12:01:07;;;;;;;0.00;0.00;;;21.20;93.10;;;;;;5052434;28;20185;-61
2023/08/28 12:03:36;;;;;;;0.00;0.00;;;21.10;93.00;;;;;;5052586;28;20204;-61
2023/08/28 12:06:09;;;;;;;0.00;0.00;;;21.00;92.60;;;;;;5052417;28;20170;-61
2023/08/28 12:08:37;;;;;;;0.00;0.00;;;21.00;93.00;;;;;;5052425;28;20173;-61
2023/08/28 12:11:07;;;;;;;0.00;0.00;;;21.00;92.60;;;;;;5052381;28;20173;-61
2023/08/28 12:13:33;;;;;;;0.00;0.00;;;21.10;92.40;;;;;;5052359;28;20201;-61
2023/08/28 12:16:19;;;;;;;0.00;0.00;;;21.10;92.10;;;;;;5051757;28;20223;-61
2023/08/28 12:18:49;;;;;;;0.00;0.00;;;21.00;92.20;;;;;;5051754;28;20754;-61
2023/08/28 12:21:17;;;;;;;0.00;0.00;;;21.00;92.60;;;;;;5051675;28;20264;-61
2023/08/28 12:23:49;;;;;;;0.00;0.00;;;21.00;91.70;;;;;;5051217;28;20260;-62
2023/08/28 12:26:17;;;;;;;0.03;0.03;;;21.00;91.60;;;;;;5051953;28;20170;-61
2023/08/28 12:28:43;;;;;;;0.00;0.00;;;21.00;91.40;;;;;;5051985;28;20187;-62
2023/08/28 12:31:09;;;;;;;0.00;0.00;;;21.20;91.70;;;;;;5051725;28;20213;-62
2023/08/28 12:33:42;;;;;;;0.00;0.00;;;21.20;91.10;;;;;;5051968;28;20646;-62
2023/08/28 12:36:07;;;;;;;0.00;0.00;;;21.40;91.10;;;;;;5058413;28;20184;-63
2023/08/28 12:38:46;;;;;;;0.10;0.10;;;21.50;91.00;;;;;;5071898;28;20164;-63
2023/08/28 12:41:12;;;;;;;0.00;0.00;;;21.50;90.00;;;;;;5071641;28;20237;-62
2023/08/28 12:43:38;;;;;;;0.00;0.00;;;21.30;89.40;;;;;;5071838;28;20196;-62
2023/08/28 12:46:03;;;;;;;0.00;0.00;;;21.20;90.50;;;;;;5066196;28;20221;-62
2023/08/28 12:48:29;;;;;;;0.00;0.00;;;21.10;90.30;;;;;;5051636;28;20166;-63
2023/08/28 12:50:55;;;;;;;0.00;0.00;;;21.10;90.90;;;;;;5051767;28;20169;-61
2023/08/28 12:53:20;;;;;;;0.00;0.00;;;21.10;90.70;;;;;;5053233;28;20195;-62